Time;durP1;ratioP1;P1;durP2;ratioP2;P2;SDS_P1;SDS_P2;PMS_P1;PMS_P2;Temp;Humidity;BMP_temperature;BMP_pressure;BME280_temperature;BME280_humidity;BME280_pressure;Samples;Min_cycle;Max_cycle;Signal;HPM_P1;HPM_P2
2021/12/23 00:02:12;;;;;;;27.77;16.90;;;;;;;-1.26;95.28;101744.97;5095240;28;20054;-35
2021/12/23 00:04:37;;;;;;;25.17;16.83;;;;;;;-1.31;95.64;101743.56;5094547;28;20448;-36
2021/12/23 00:07:03;;;;;;;23.37;17.07;;;;;;;-1.40;94.62;101719.63;5095234;28;20044;-36
2021/12/23 00:09:54;;;;;;;24.77;17.30;;;;;;;-1.41;94.33;101708.16;5094988;28;20028;-36
2021/12/23 00:12:17;;;;;;;26.00;17.48;;;;;;;-1.37;93.99;101701.59;5094477;28;20040;-36
2021/12/23 00:14:43;;;;;;;25.23;16.98;;;;;;;-1.41;93.85;101696.72;5095356;28;20028;-36
2021/12/23 00:17:26;;;;;;;28.95;18.65;;;;;;;-1.41;94.04;101699.38;5094469;28;20028;-36
2021/12/23 00:25:17;;;;;;;25.38;17.13;;;;;;;-1.49;92.97;101694.72;5094926;28;20048;-36
2021/12/23 00:27:42;;;;;;;26.93;18.00;;;;;;;-1.46;92.90;101693.63;5094295;28;20024;-36
2021/12/23 00:30:08;;;;;;;28.27;18.40;;;;;;;-1.43;93.50;101691.53;5094572;28;20038;-36
2021/12/23 00:32:34;;;;;;;25.08;17.88;;;;;;;-1.44;92.94;101679.25;5094458;28;20116;-36
2021/12/23 00:34:59;;;;;;;32.13;18.50;;;;;;;-1.46;93.65;101649.38;5094460;28;20028;-36
2021/12/23 00:37:24;;;;;;;28.37;18.33;;;;;;;-1.44;93.03;101659.84;5094113;28;20122;-36
2021/12/23 00:39:51;;;;;;;26.07;18.47;;;;;;;-1.44;93.28;101663.31;5094139;28;20020;-36
2021/12/23 00:42:17;;;;;;;27.10;17.63;;;;;;;-1.41;93.18;101663.06;5094443;28;20119;-36
2021/12/23 00:44:47;;;;;;;28.70;18.33;;;;;;;-1.38;93.43;101670.75;5094045;28;20059;-36
2021/12/23 00:47:13;;;;;;;29.88;18.85;;;;;;;-1.37;93.68;101675.06;5093716;28;20540;-36
2021/12/23 00:49:38;;;;;;;;;;;;;;;-1.26;93.54;101668.03;5094363;28;20028;-36
2021/12/23 00:52:06;;;;;;;28.87;17.80;;;;;;;-1.37;92.64;101656.50;5093550;28;19915;-36
2021/12/23 00:54:32;;;;;;;27.33;17.27;;;;;;;-1.39;93.17;101660.28;5093854;28;20035;-36
2021/12/23 00:56:57;;;;;;;24.93;17.23;;;;;;;-1.43;92.89;101649.06;5093501;28;20468;-36
2021/12/23 00:59:23;;;;;;;26.05;17.58;;;;;;;-1.60;93.18;101623.19;5093851;28;20499;-36
2021/12/23 01:01:48;;;;;;;26.77;18.83;;;;;;;-1.35;93.79;101659.88;5093682;28;20024;-36
2021/12/23 01:04:14;;;;;;;25.20;16.57;;;;;;;-1.29;93.70;101661.16;5093993;28;20063;-36
2021/12/23 01:06:40;;;;;;;23.58;16.90;;;;;;;-1.35;93.45;101659.88;5093549;28;20052;-36
2021/12/23 01:09:05;;;;;;;26.15;18.70;;;;;;;-1.30;92.99;101670.94;5094209;28;20038;-36
2021/12/23 01:11:31;;;;;;;26.33;18.23;;;;;;;-1.23;93.61;101668.56;5093559;28;20035;-36
2021/12/23 01:14:25;;;;;;;23.27;17.50;;;;;;;-1.27;93.25;101663.66;5093784;28;20063;-36
2021/12/23 01:19:23;;;;;;;26.60;17.55;;;;;;;-1.17;94.49;101645.94;5093606;28;20122;-36
2021/12/23 01:21:49;;;;;;;26.17;17.52;;;;;;;-1.26;92.87;101647.63;5093088;28;20040;-35
2021/12/23 01:24:14;;;;;;;26.60;17.27;;;;;;;-1.25;93.00;101641.34;5093292;28;20460;-36
2021/12/23 01:26:40;;;;;;;24.53;17.43;;;;;;;-1.31;92.19;101621.50;5093406;28;20059;-36
2021/12/23 01:29:05;;;;;;;27.00;18.40;;;;;;;-1.28;92.35;101624.84;5094191;28;20413;-36
2021/12/23 01:31:32;;;;;;;28.80;19.17;;;;;;;-1.31;91.62;101621.50;5093359;28;20531;-36
2021/12/23 01:33:58;;;;;;;26.88;18.38;;;;;;;-1.36;91.51;101621.06;5093333;28;20039;-36
2021/12/23 01:36:24;;;;;;;28.17;18.67;;;;;;;-1.30;92.63;101627.63;5093550;28;20028;-36
2021/12/23 01:38:50;;;;;;;26.95;18.50;;;;;;;-1.38;91.83;101617.69;5093867;28;20039;-36
2021/12/23 01:41:15;;;;;;;26.55;18.65;;;;;;;-1.41;93.11;101604.69;5093210;28;20479;-36
2021/12/23 01:43:41;;;;;;;28.45;19.83;;;;;;;-1.36;91.79;101610.44;5092484;28;20027;-36
2021/12/23 01:46:06;;;;;;;28.70;19.13;;;;;;;-1.37;91.55;101599.94;5093244;28;20441;-36
2021/12/23 01:48:32;;;;;;;26.67;19.20;;;;;;;-1.27;92.83;101613.25;5093295;28;20441;-36
2021/12/23 01:50:58;;;;;;;28.70;18.50;;;;;;;-1.32;92.63;101590.63;5093110;28;20032;-36
2021/12/23 01:53:23;;;;;;;29.42;19.15;;;;;;;-1.30;92.42;101599.28;5093693;28;20320;-36
2021/12/23 01:55:49;;;;;;;26.80;17.83;;;;;;;-1.27;92.28;101602.63;5093903;28;20032;-36
2021/12/23 01:58:14;;;;;;;25.50;17.70;;;;;;;-1.29;92.33;101605.41;5093108;28;20042;-36
2021/12/23 02:00:44;;;;;;;27.00;17.80;;;;;;;-1.26;92.75;101581.28;5093614;28;20478;-37
2021/12/23 02:03:10;;;;;;;26.58;18.08;;;;;;;-1.30;92.29;101587.81;5092574;28;20028;-36
2021/12/23 02:05:36;;;;;;;26.27;18.17;;;;;;;-1.40;91.98;101555.97;5093057;28;20028;-36
2021/12/23 02:08:02;;;;;;;27.30;18.80;;;;;;;-1.31;92.46;101575.53;5093533;28;20113;-36
2021/12/23 02:10:28;;;;;;;27.60;17.95;;;;;;;-1.29;93.50;101573.56;5092951;28;20020;-36
2021/12/23 02:12:54;;;;;;;25.13;17.33;;;;;;;-1.26;92.73;101578.63;5092965;28;20389;-36
2021/12/23 02:15:20;;;;;;;24.17;17.95;;;;;;;-1.41;92.32;101567.56;5092949;28;20461;-36
2021/12/23 02:17:47;;;;;;;27.33;18.98;;;;;;;-1.33;91.74;101569.50;5092929;28;20048;-36
2021/12/23 02:20:15;;;;;;;28.42;17.98;;;;;;;-1.45;92.20;101558.19;5093361;28;20360;-36
2021/12/23 02:22:42;;;;;;;25.83;17.15;;;;;;;-1.36;92.95;101565.34;5092669;28;20047;-36
2021/12/23 02:25:09;;;;;;;28.40;18.70;;;;;;;-1.42;92.12;101543.78;5092903;28;20043;-36
2021/12/23 02:27:35;;;;;;;25.35;18.02;;;;;;;-1.44;91.92;101554.53;5093133;28;20074;-36
2021/12/23 02:30:03;;;;;;;26.08;18.65;;;;;;;-1.56;91.44;101547.69;5096836;28;20413;-36
2021/12/23 02:32:29;;;;;;;27.15;18.00;;;;;;;-1.49;91.25;101556.78;5096507;28;20460;-36
2021/12/23 02:34:54;;;;;;;29.37;18.83;;;;;;;-1.52;91.37;101569.44;5096337;28;20107;-36
2021/12/23 02:37:19;;;;;;;26.70;19.20;;;;;;;-1.52;91.46;101575.59;5096147;28;20028;-36
2021/12/23 02:39:45;;;;;;;26.13;17.93;;;;;;;-1.48;91.80;101581.47;5096477;28;20048;-36
2021/12/23 02:42:11;;;;;;;27.17;18.73;;;;;;;-1.59;91.58;101562.03;5096250;28;20066;-36
2021/12/23 02:44:36;;;;;;;28.98;18.73;;;;;;;-1.52;91.90;101578.25;5096872;28;20031;-36
2021/12/23 02:47:01;;;;;;;28.70;18.57;;;;;;;-1.45;92.50;101578.56;5096359;28;20032;-35
2021/12/23 02:49:27;;;;;;;24.27;16.23;;;;;;;-1.50;92.24;101578.13;5095964;28;20404;-36
2021/12/23 02:51:53;;;;;;;28.63;19.80;;;;;;;-1.51;92.00;101569.34;5095908;28;20020;-36
2021/12/23 02:54:19;;;;;;;28.23;18.25;;;;;;;-1.58;91.61;101553.09;5096739;28;20024;-36
2021/12/23 02:56:45;;;;;;;24.95;16.85;;;;;;;-1.46;92.10;101553.03;5095787;28;20059;-36
2021/12/23 02:59:10;;;;;;;26.77;16.75;;;;;;;-1.42;92.76;101544.63;5095824;28;20031;-36
2021/12/23 03:01:36;;;;;;;23.40;15.63;;;;;;;-1.44;93.42;101525.38;5096348;28;20089;-36
2021/12/23 03:04:02;;;;;;;21.05;15.65;;;;;;;-1.49;92.59;101524.94;5096219;28;20111;-36
2021/12/23 03:06:28;;;;;;;25.38;17.27;;;;;;;-1.47;92.96;101527.44;5096103;28;20048;-36
2021/12/23 03:09:03;;;;;;;23.90;16.97;;;;;;;-1.55;92.93;101517.53;5095997;28;20024;-36
2021/12/23 03:11:29;;;;;;;24.50;16.65;;;;;;;-1.56;92.95;101524.66;5096115;28;20046;-36
2021/12/23 03:13:56;;;;;;;24.38;16.60;;;;;;;-1.53;92.40;101509.44;5096399;28;20077;-36
2021/12/23 03:16:33;;;;;;;24.48;16.52;;;;;;;-1.52;93.50;101527.84;5095386;28;20398;-36
2021/12/23 03:18:58;;;;;;;24.70;17.52;;;;;;;-1.65;91.50;101516.66;5095514;28;20460;-36
2021/12/23 03:21:24;;;;;;;22.97;16.03;;;;;;;-1.62;92.70;101519.88;5095740;28;20020;-36
2021/12/23 03:23:51;;;;;;;24.27;16.37;;;;;;;-1.89;91.41;101496.63;5096199;28;20024;-36
2021/12/23 03:26:17;;;;;;;25.98;17.00;;;;;;;-1.78;91.62;101506.28;5095274;28;20177;-36
2021/12/23 03:28:43;;;;;;;24.73;16.85;;;;;;;-1.76;93.29;101484.94;5095895;28;20032;-36
2021/12/23 03:31:08;;;;;;;23.52;15.95;;;;;;;-1.85;93.08;101492.75;5095484;28;20064;-36
2021/12/23 03:33:33;;;;;;;21.13;14.77;;;;;;;-1.79;94.10;101494.00;5096066;28;20111;-36
2021/12/23 03:35:59;;;;;;;25.03;17.03;;;;;;;-1.74;94.60;101490.97;5095620;28;20077;-36
2021/12/23 03:38:25;;;;;;;23.48;16.13;;;;;;;-1.69;94.95;101496.69;5095394;28;20024;-36
2021/12/23 03:40:50;;;;;;;24.00;16.00;;;;;;;-1.80;94.01;101473.78;5094329;28;20166;-36
2021/12/23 03:43:17;;;;;;;26.67;16.67;;;;;;;-1.79;93.85;101464.84;5095236;28;20534;-36
2021/12/23 03:45:45;;;;;;;23.00;16.13;;;;;;;-1.70;93.71;101463.19;5096009;28;20349;-36
2021/12/23 03:48:12;;;;;;;24.08;16.35;;;;;;;-1.82;93.17;101447.38;5095108;28;20031;-36
2021/12/23 03:50:38;;;;;;;26.58;16.95;;;;;;;-1.86;93.21;101443.31;5095072;28;20361;-36
2021/12/23 03:53:03;;;;;;;27.20;16.63;;;;;;;-1.84;93.95;101436.09;5095496;28;20024;-36
2021/12/23 03:55:29;;;;;;;24.40;16.17;;;;;;;-1.89;93.63;101416.25;5094947;28;20051;-36
2021/12/23 03:57:55;;;;;;;26.77;16.63;;;;;;;-1.85;94.24;101426.47;5094940;28;20145;-36
2021/12/23 04:00:22;;;;;;;31.03;16.77;;;;;;;-1.85;93.74;101421.16;5094723;28;20055;-36
2021/12/23 04:02:49;;;;;;;24.75;17.13;;;;;;;-1.85;93.77;101433.56;5094978;28;20107;-36
2021/12/23 04:05:15;;;;;;;28.02;17.35;;;;;;;-1.89;93.84;101417.09;5094796;28;20403;-36
2021/12/23 04:07:41;;;;;;;25.85;18.13;;;;;;;-1.86;93.45;101432.72;5095094;28;20088;-36
2021/12/23 04:10:08;;;;;;;29.08;17.48;;;;;;;-1.90;93.76;101428.69;5094783;28;20073;-36
2021/12/23 04:12:34;;;;;;;24.17;16.67;;;;;;;-1.84;94.33;101419.34;5094319;28;20032;-36
2021/12/23 04:14:59;;;;;;;27.30;18.80;;;;;;;-1.91;93.50;101412.88;5094315;28;20089;-36
2021/12/23 04:17:25;;;;;;;26.58;17.83;;;;;;;-1.85;93.85;101423.81;5094541;28;20266;-36
2021/12/23 04:19:50;;;;;;;31.43;19.90;;;;;;;-1.82;94.04;101426.16;5094917;28;20028;-36
2021/12/23 04:22:16;;;;;;;27.17;18.15;;;;;;;-1.89;93.77;101419.75;5094908;28;20400;-36
2021/12/23 04:24:42;;;;;;;28.17;18.88;;;;;;;-1.61;95.93;101414.63;5094982;28;20028;-36
2021/12/23 04:27:08;;;;;;;30.53;19.63;;;;;;;-1.81;94.09;101411.09;5094391;28;20123;-36
2021/12/23 04:29:33;;;;;;;;;;;;;;;-1.69;94.33;101419.78;5095033;28;20455;-36
2021/12/23 04:31:59;;;;;;;31.70;19.90;;;;;;;-1.79;92.91;101413.63;5094213;28;19951;-36
2021/12/23 04:34:26;;;;;;;32.17;20.63;;;;;;;-1.71;93.76;101413.75;5094425;28;20059;-36
2021/12/23 04:36:52;;;;;;;33.80;20.95;;;;;;;-1.72;93.41;101420.06;5094095;28;20020;-36
2021/12/23 04:39:17;;;;;;;33.38;22.42;;;;;;;-1.82;93.38;101378.44;5094927;28;20027;-36
2021/12/23 04:41:42;;;;;;;29.07;19.63;;;;;;;-1.66;95.13;101383.22;5093861;28;20059;-36
2021/12/23 04:44:08;;;;;;;34.90;21.83;;;;;;;-1.65;93.87;101389.38;5094273;28;20024;-36
2021/12/23 04:46:33;;;;;;;32.97;21.70;;;;;;;-1.65;93.37;101378.75;5094006;28;20097;-36
2021/12/23 04:48:59;;;;;;;34.30;21.30;;;;;;;-1.73;93.63;101362.69;5093723;28;20028;-36
2021/12/23 04:51:24;;;;;;;32.43;22.13;;;;;;;-1.61;92.97;101383.66;5093505;28;20035;-36
2021/12/23 04:53:50;;;;;;;35.10;22.20;;;;;;;-1.54;93.82;101380.44;5094353;28;20116;-36
2021/12/23 04:56:17;;;;;;;34.17;21.77;;;;;;;-1.48;94.32;101380.72;5094344;28;20111;-36
2021/12/23 04:58:43;;;;;;;36.42;23.10;;;;;;;-1.54;93.47;101372.47;5093819;28;20020;-36
2021/12/23 05:01:16;;;;;;;;;;;;;;;-1.40;93.20;101378.22;5094271;28;20060;-36
2021/12/23 05:03:42;;;;;;;36.25;22.88;;;;;;;-1.47;92.17;101363.81;5093421;28;20376;-36
2021/12/23 05:06:08;;;;;;;36.03;23.38;;;;;;;-1.49;92.67;101368.44;5092214;28;20044;-36
2021/12/23 05:08:33;;;;;;;33.80;22.50;;;;;;;-1.49;92.63;101359.63;5093690;28;20031;-36
2021/12/23 05:10:58;;;;;;;37.23;24.13;;;;;;;-1.48;92.86;101358.66;5093653;28;20107;-36
2021/12/23 05:13:24;;;;;;;37.90;23.97;;;;;;;-1.69;93.00;101316.38;5093801;28;20038;-36
2021/12/23 05:15:49;;;;;;;40.97;25.57;;;;;;;-1.44;93.44;101350.28;5093968;28;20460;-36
2021/12/23 05:18:14;;;;;;;38.70;23.73;;;;;;;-1.39;92.79;101353.34;5094187;28;20428;-36
2021/12/23 05:20:40;;;;;;;35.50;22.80;;;;;;;-1.35;93.49;101357.41;5094142;28;20439;-36
2021/12/23 05:23:05;;;;;;;38.90;24.40;;;;;;;-1.37;92.54;101351.38;5093510;28;20107;-36
2021/12/23 05:25:30;;;;;;;39.87;24.83;;;;;;;-1.25;93.82;101357.38;5093259;28;20061;-36
2021/12/23 05:27:58;;;;;;;34.30;23.23;;;;;;;-1.41;92.52;101343.88;5093429;28;20177;-36
2021/12/23 05:30:25;;;;;;;38.10;23.60;;;;;;;-1.33;93.04;101336.00;5093678;28;20024;-36
2021/12/23 05:32:51;;;;;;;38.03;24.65;;;;;;;-1.36;92.20;101331.84;5093659;28;20093;-36
2021/12/23 05:35:17;;;;;;;;;;;;;;;-1.20;93.00;101357.78;5093847;28;20051;-36
2021/12/23 05:37:43;;;;;;;34.72;23.73;;;;;;;-1.20;92.87;101351.66;5091488;28;20279;-36
2021/12/23 05:40:11;;;;;;;34.95;23.05;;;;;;;-1.10;94.39;101337.38;5093662;28;20020;-36
2021/12/23 05:42:37;;;;;;;35.08;23.50;;;;;;;-1.08;94.53;101339.88;5092853;28;20065;-36
2021/12/23 05:45:03;;;;;;;40.00;23.83;;;;;;;-1.12;93.71;101343.81;5093410;28;20101;-36
2021/12/23 05:47:28;;;;;;;;;;;;;;;-1.12;92.69;101330.56;5093659;28;20028;-35
2021/12/23 05:49:53;;;;;;;36.13;23.50;;;;;;;-1.21;93.00;101323.44;5093424;28;19914;-35
2021/12/23 05:52:19;;;;;;;39.40;24.23;;;;;;;-1.21;92.42;101321.63;5093267;28;20031;-35
2021/12/23 05:54:44;;;;;;;37.37;24.93;;;;;;;-1.21;92.91;101326.09;5093994;28;20028;-35
2021/12/23 05:57:09;;;;;;;40.57;24.97;;;;;;;-1.14;94.03;101322.72;5093142;28;20424;-35
2021/12/23 05:59:36;;;;;;;41.57;25.03;;;;;;;-1.11;93.83;101330.41;5093680;28;20099;-35
2021/12/23 06:02:06;;;;;;;37.05;23.90;;;;;;;-1.02;94.55;101334.03;5092882;28;20210;-35
2021/12/23 06:04:33;;;;;;;37.75;24.02;;;;;;;-1.14;92.72;101335.16;5097652;28;20093;-35
2021/12/23 06:06:59;;;;;;;42.05;25.92;;;;;;;-1.18;92.04;101329.28;5097170;28;20048;-35
2021/12/23 06:09:24;;;;;;;35.77;24.23;;;;;;;-1.12;93.17;101322.59;5097725;28;20032;-35
2021/12/23 06:11:49;;;;;;;41.07;26.13;;;;;;;-1.25;92.02;101328.19;5097141;28;20058;-35
2021/12/23 06:14:16;;;;;;;40.20;25.50;;;;;;;-1.20;93.58;101330.44;5096540;28;20036;-35
2021/12/23 06:16:43;;;;;;;39.05;24.90;;;;;;;-1.26;92.45;101323.88;5096650;28;20131;-35
2021/12/23 06:19:08;;;;;;;37.53;25.52;;;;;;;-1.22;93.03;101325.28;5096958;28;20035;-35
2021/12/23 06:21:33;;;;;;;39.27;26.00;;;;;;;-1.13;94.58;101318.25;5096809;28;20027;-35
2021/12/23 06:23:59;;;;;;;36.00;23.90;;;;;;;-1.10;95.19;101312.66;5096733;28;20515;-35
2021/12/23 06:26:25;;;;;;;40.00;25.00;;;;;;;-1.14;94.03;101295.34;5096704;28;20080;-35
2021/12/23 06:28:50;;;;;;;39.93;26.00;;;;;;;-1.30;92.51;101282.69;5097025;28;20555;-34
2021/12/23 06:31:15;;;;;;;38.33;25.00;;;;;;;-1.20;93.48;101287.97;5095220;28;20032;-35
2021/12/23 06:33:41;;;;;;;40.60;26.07;;;;;;;-1.23;93.58;101288.25;5096886;28;20460;-34
2021/12/23 06:36:06;;;;;;;38.77;24.63;;;;;;;-1.24;93.23;101276.78;5096537;28;20138;-35
2021/12/23 06:38:32;;;;;;;43.03;25.83;;;;;;;-1.20;94.54;101294.09;5097077;28;20020;-35
2021/12/23 06:40:58;;;;;;;45.70;26.70;;;;;;;-1.24;93.50;101286.56;5096185;28;20024;-35
2021/12/23 06:43:24;;;;;;;45.05;26.98;;;;;;;-1.27;92.93;101277.06;5096539;28;20050;-35
2021/12/23 06:45:49;;;;;;;43.23;26.27;;;;;;;-1.25;92.92;101275.13;5097047;28;20028;-35
2021/12/23 06:48:14;;;;;;;46.70;27.87;;;;;;;-1.31;93.09;101262.44;5096337;28;20370;-35
2021/12/23 06:50:40;;;;;;;38.63;24.30;;;;;;;-1.17;94.02;101253.16;5096577;28;20103;-35
2021/12/23 06:53:05;;;;;;;39.27;24.67;;;;;;;-1.18;93.90;101257.63;5108721;28;20471;-35
2021/12/23 06:55:31;;;;;;;41.87;24.93;;;;;;;-1.23;92.05;101265.19;5116845;28;20110;-35
2021/12/23 06:57:57;;;;;;;42.15;26.85;;;;;;;-1.21;93.07;101267.72;5116195;28;20047;-35
2021/12/23 07:00:26;;;;;;;40.90;25.90;;;;;;;-1.25;92.67;101269.81;5116502;28;20141;-35
2021/12/23 07:02:52;;;;;;;42.13;26.40;;;;;;;-1.29;92.22;101271.06;5116071;28;20567;-35
2021/12/23 07:05:18;;;;;;;39.83;25.20;;;;;;;-1.18;93.36;101280.69;5116236;27;20368;-35
2021/12/23 07:08:03;;;;;;;41.35;26.48;;;;;;;-1.18;93.33;101286.00;5116349;28;20098;-35
2021/12/23 07:10:29;;;;;;;42.45;25.88;;;;;;;-1.17;92.36;101291.19;5116657;28;20020;-35
2021/12/23 07:12:56;;;;;;;;;;;;;;;-1.08;93.38;101281.50;5117019;28;20084;-35
2021/12/23 07:15:23;;;;;;;40.05;23.58;;;;;;;-1.01;94.48;101276.47;5115269;28;19919;-35
2021/12/23 07:17:50;;;;;;;39.80;24.73;;;;;;;-1.02;94.00;101272.97;5116149;28;20032;-35
2021/12/23 07:20:15;;;;;;;37.60;23.58;;;;;;;-0.95;94.00;101263.44;5115843;28;20027;-35
2021/12/23 07:22:41;;;;;;;36.57;23.97;;;;;;;-0.86;94.37;101265.22;5116223;28;20023;-35
2021/12/23 07:25:07;;;;;;;40.25;24.08;;;;;;;-1.01;93.30;101248.09;5115680;28;20090;-35
2021/12/23 07:27:32;;;;;;;43.63;26.10;;;;;;;-0.93;92.08;101280.03;5115876;28;20092;-35
2021/12/23 07:29:58;;;;;;;38.60;24.40;;;;;;;-0.83;94.42;101291.47;5115927;28;20062;-35
2021/12/23 07:32:23;;;;;;;38.77;23.93;;;;;;;-0.77;95.06;101291.88;5115791;28;20055;-34
2021/12/23 07:34:48;;;;;;;38.73;23.37;;;;;;;-0.75;94.36;101282.78;5116005;28;20157;-35
2021/12/23 07:37:14;;;;;;;40.63;24.10;;;;;;;-0.74;94.42;101275.63;5115048;28;20027;-35
2021/12/23 07:39:39;;;;;;;38.10;23.43;;;;;;;-0.66;94.55;101281.06;5115765;28;20087;-35
2021/12/23 07:42:06;;;;;;;39.53;24.83;;;;;;;-0.71;93.79;101257.59;5115619;28;20450;-35
2021/12/23 07:44:35;;;;;;;41.17;24.23;;;;;;;-0.65;93.78;101282.72;5115622;28;20046;-34
2021/12/23 07:47:02;;;;;;;40.33;23.17;;;;;;;-0.48;95.71;101286.44;5115490;28;20035;-35
2021/12/23 07:49:27;;;;;;;36.55;22.98;;;;;;;-0.54;94.88;101285.19;5115485;28;20035;-34
2021/12/23 07:51:53;;;;;;;37.93;23.17;;;;;;;-0.54;95.38;101261.25;5115932;28;20104;-35
2021/12/23 07:54:19;;;;;;;40.25;24.33;;;;;;;-0.42;94.73;101273.38;5115901;28;20254;-35
2021/12/23 07:56:44;;;;;;;40.77;23.60;;;;;;;-0.50;94.85;101256.50;5115252;28;20019;-35
2021/12/23 07:59:10;;;;;;;36.23;22.17;;;;;;;-0.53;96.27;101233.75;5115518;28;20540;-35
2021/12/23 08:01:35;;;;;;;36.27;22.13;;;;;;;-0.54;94.78;101247.97;5115025;28;20364;-35
2021/12/23 08:04:00;;;;;;;39.27;23.63;;;;;;;-0.48;93.44;101262.53;5115356;28;20038;-35
2021/12/23 08:06:27;;;;;;;38.33;23.33;;;;;;;-0.43;94.37;101261.09;5114511;28;20460;-35
2021/12/23 08:08:52;;;;;;;;;;;;;;;-0.35;94.34;101266.47;5115423;28;20433;-35
2021/12/23 08:11:18;;;;;;;37.72;22.35;;;;;;;-0.45;93.39;101257.72;5115277;28;19912;-35
2021/12/23 08:13:43;;;;;;;38.27;23.73;;;;;;;-0.39;94.90;101249.19;5115803;28;20102;-35
2021/12/23 08:16:08;;;;;;;38.77;23.87;;;;;;;-0.38;94.44;101257.97;5115019;28;20144;-35
2021/12/23 08:18:34;;;;;;;39.97;24.67;;;;;;;-0.45;92.86;101255.06;5115239;28;20098;-35
2021/12/23 08:21:00;;;;;;;40.67;24.60;;;;;;;-0.40;92.91;101275.88;5114134;28;20064;-35
2021/12/23 08:23:26;;;;;;;42.33;25.02;;;;;;;-0.41;93.02;101272.38;5115238;28;20023;-35
2021/12/23 08:25:53;;;;;;;37.17;22.60;;;;;;;-0.36;93.97;101267.47;5114606;28;20097;-35
2021/12/23 08:28:19;;;;;;;40.05;24.00;;;;;;;-0.40;92.71;101259.94;5114853;28;20076;-35
2021/12/23 08:30:44;;;;;;;39.17;24.00;;;;;;;-0.36;92.95;101246.19;5114887;28;20027;-35
2021/12/23 08:33:09;;;;;;;40.97;23.77;;;;;;;-0.41;93.73;101223.72;5114873;28;20115;-35
2021/12/23 08:35:36;;;;;;;40.80;23.67;;;;;;;-0.34;93.50;101246.91;5115113;28;20031;-35
2021/12/23 08:38:02;;;;;;;39.83;24.45;;;;;;;-0.34;94.27;101228.31;5114174;28;20076;-35
2021/12/23 08:40:29;;;;;;;38.38;23.48;;;;;;;-0.27;94.88;101233.84;5114708;28;20042;-35
2021/12/23 08:42:56;;;;;;;;;;;;;;;-0.14;94.59;101239.63;5114423;28;20081;-35
2021/12/23 08:45:22;;;;;;;36.97;22.40;;;;;;;-0.20;94.78;101229.56;5114410;28;20014;-35
2021/12/23 08:47:48;;;;;;;40.15;24.60;;;;;;;-0.20;93.74;101218.09;5113990;28;20062;-35
2021/12/23 08:50:15;;;;;;;36.97;22.95;;;;;;;-0.09;95.01;101221.41;5114250;28;20032;-35
2021/12/23 08:52:41;;;;;;;37.40;23.10;;;;;;;-0.17;93.67;101210.69;5113906;28;20032;-35
2021/12/23 08:55:08;;;;;;;39.30;24.52;;;;;;;-0.10;93.98;101202.91;5113623;28;20046;-35
2021/12/23 08:57:34;;;;;;;37.22;24.20;;;;;;;-0.12;93.38;101199.59;5114178;28;20035;-36
2021/12/23 08:59:59;;;;;;;39.38;25.00;;;;;;;-0.18;92.06;101195.72;5114388;28;20374;-35
2021/12/23 09:02:25;;;;;;;38.80;23.70;;;;;;;-0.14;92.69;101201.56;5113990;28;20476;-34
2021/12/23 09:04:50;;;;;;;41.45;24.98;;;;;;;-0.19;92.46;101211.84;5113993;28;20074;-34
2021/12/23 09:07:17;;;;;;;37.75;23.50;;;;;;;-0.10;93.32;101211.75;5113893;28;20075;-35
2021/12/23 09:09:47;;;;;;;37.25;23.98;;;;;;;-0.07;93.42;101213.25;5114310;27;20032;-35
2021/12/23 09:12:12;;;;;;;37.75;24.23;;;;;;;-0.01;93.69;101204.66;5114131;28;20055;-35
2021/12/23 09:14:38;;;;;;;35.47;22.92;;;;;;;-0.09;92.77;101205.44;5114641;28;20061;-35
2021/12/23 09:17:03;;;;;;;38.37;22.53;;;;;;;-0.03;93.61;101202.16;5112760;28;20024;-35
2021/12/23 09:19:29;;;;;;;35.00;21.87;;;;;;;-0.01;94.05;101194.03;5113834;28;20107;-35
2021/12/23 09:21:55;;;;;;;33.72;21.30;;;;;;;0.08;94.87;101201.09;5113754;28;20023;-35
2021/12/23 09:24:20;;;;;;;35.87;22.20;;;;;;;0.10;94.09;101214.22;5113891;28;20347;-35
2021/12/23 09:26:53;;;;;;;35.05;22.60;;;;;;;0.11;93.30;101205.28;5113657;28;20039;-34
2021/12/23 09:32:41;;;;;;;36.80;23.00;;;;;;;0.09;93.11;101200.09;5113315;28;20088;-35
2021/12/23 09:34:51;;;;;;;36.80;22.17;;;;;;;0.21;93.95;101196.22;5113579;28;20127;-35
2021/12/23 09:37:18;;;;;;;37.25;21.42;;;;;;;0.36;95.56;101193.00;5112425;28;20039;-35
2021/12/23 09:39:44;;;;;;;;;;;;;;;0.34;94.40;101186.97;5114519;28;20096;-35
2021/12/23 09:42:13;;;;;;;35.10;21.17;;;;;;;0.12;92.85;101175.84;5113479;28;19907;-35
2021/12/23 09:44:39;;;;;;;32.80;22.42;;;;;;;0.25;93.71;101178.97;5114066;28;20039;-35
2021/12/23 09:47:06;;;;;;;36.65;22.70;;;;;;;0.20;93.44;101167.94;5113448;28;20024;-35
2021/12/23 09:49:31;;;;;;;37.75;23.83;;;;;;;0.10;92.54;101156.56;5113902;28;20032;-35
2021/12/23 09:52:03;;;;;;;38.38;25.05;;;;;;;0.17;93.44;101152.28;5113354;28;20215;-35
2021/12/23 09:54:31;;;;;;;39.80;24.35;;;;;;;0.15;93.16;101150.78;5113327;28;20035;-35
2021/12/23 09:56:56;;;;;;;38.50;23.50;;;;;;;0.21;93.38;101161.63;5113617;28;20076;-35
2021/12/23 09:59:27;;;;;;;38.28;24.00;;;;;;;0.17;92.29;101157.59;5113402;28;20020;-35
2021/12/23 10:01:53;;;;;;;37.30;23.83;;;;;;;0.27;93.78;101162.84;5113242;28;20031;-35
2021/12/23 10:04:18;;;;;;;38.13;23.58;;;;;;;0.29;93.68;101149.38;5113492;28;20069;-35
2021/12/23 10:06:44;;;;;;;39.10;24.30;;;;;;;0.31;93.78;101153.56;5113170;28;20069;-35
2021/12/23 10:09:10;;;;;;;41.13;24.67;;;;;;;0.27;92.98;101146.03;5112921;28;20100;-35
2021/12/23 10:12:24;;;;;;;40.47;25.80;;;;;;;0.21;92.88;101147.50;5112699;28;20035;-35
2021/12/23 10:30:55;;;;;;;41.20;24.63;;;;;;;0.52;93.26;101116.75;5113096;28;20430;-35
2021/12/23 10:38:41;;;;;;;41.25;24.85;;;;;;;0.60;92.89;101073.38;5113426;28;20110;-35
2021/12/23 10:41:11;;;;;;;39.72;23.85;;;;;;;0.65;93.47;101073.72;5111278;28;20034;-35
2021/12/23 10:43:41;;;;;;;40.75;24.77;;;;;;;0.64;92.43;101069.41;5113480;28;20364;-35
2021/12/23 10:46:37;;;;;;;42.58;25.17;;;;;;;0.69;92.57;101068.94;5112715;28;20031;-35
2021/12/23 10:52:06;;;;;;;39.72;24.45;;;;;;;0.68;92.55;101051.25;5116474;28;20046;-35
2021/12/23 11:00:19;;;;;;;36.15;22.30;;;;;;;0.83;93.25;101032.84;5116592;28;20174;-35
2021/12/23 11:02:57;;;;;;;39.60;24.35;;;;;;;0.96;93.26;101039.38;5116160;28;20100;-35
2021/12/23 11:05:27;;;;;;;44.58;24.65;;;;;;;0.96;92.38;101043.88;5116568;28;20057;-35
2021/12/23 11:08:37;;;;;;;40.40;24.73;;;;;;;0.95;92.57;101024.41;5116684;28;20044;-35
2021/12/23 11:35:50;;;;;;;38.83;21.48;;;;;;;1.45;92.63;100987.94;5116174;28;20391;-35
2021/12/23 11:38:31;;;;;;;39.45;24.13;;;;;;;1.46;92.94;100970.94;5116323;28;20102;-35
2021/12/23 11:41:03;;;;;;;39.65;23.75;;;;;;;1.63;92.69;100977.94;5116300;28;20050;-35
2021/12/23 11:43:49;;;;;;;35.67;22.98;;;;;;;1.73;92.78;100981.25;5115934;28;20047;-35
2021/12/23 11:46:24;;;;;;;39.22;23.05;;;;;;;1.79;92.14;100979.72;5116138;28;20023;-35
2021/12/23 11:48:55;;;;;;;35.75;21.83;;;;;;;1.83;91.18;100974.91;5115325;28;20020;-35
2021/12/23 11:54:11;;;;;;;36.13;21.70;;;;;;;1.90;91.92;100949.19;5116032;28;20055;-35
2021/12/23 11:56:43;;;;;;;38.97;22.92;;;;;;;2.00;91.33;100950.69;5114546;28;20417;-35
2021/12/23 11:59:10;;;;;;;38.85;23.13;;;;;;;1.89;91.22;100915.53;5115453;28;20023;-35
2021/12/23 12:01:52;;;;;;;36.03;22.38;;;;;;;2.10;91.28;100922.94;5114167;28;20055;-35
2021/12/23 12:04:35;;;;;;;39.92;22.80;;;;;;;2.28;91.08;100944.88;5114831;28;20020;-35
2021/12/23 12:07:11;;;;;;;37.65;23.08;;;;;;;2.26;90.39;100921.03;5115815;28;20047;-34
2021/12/23 12:09:38;;;;;;;35.65;21.00;;;;;;;2.42;91.03;100932.63;5114961;28;20039;-35
2021/12/23 12:12:08;;;;;;;36.70;21.80;;;;;;;2.41;90.40;100925.63;5115345;28;20030;-35
2021/12/23 12:14:38;;;;;;;38.42;21.90;;;;;;;2.42;89.94;100912.09;5115599;28;20055;-35
2021/12/23 12:17:25;;;;;;;36.53;21.45;;;;;;;2.44;90.35;100911.94;5114407;28;20118;-35
2021/12/23 12:19:59;;;;;;;37.65;20.83;;;;;;;2.45;90.76;100905.59;5114682;28;20380;-35
2021/12/23 12:23:03;;;;;;;34.47;21.05;;;;;;;2.47;90.62;100891.06;5114337;28;20051;-35
2021/12/23 12:25:28;;;;;;;36.78;21.95;;;;;;;2.49;89.93;100894.41;5114852;28;20529;-35